Stoneboro, South Carolina
Current Conditions -  °F | °C
As of 3:15 AM on Saturday 20 Dec 2014 (Local Time) from KLKR Reporting Station
Few Clouds Few Clouds  
Wind Chill: 45°   Ceiling: Unl
Heat Index: 45°   Visibility: 10mi
Dew Point: 34°   Wind: 3mph
Humidity: 66%   Direction: 60°ENE
Pressure: 30.19"   Gusts: NA
Location:  34.5669°N, 80.7524°W
Report Text: KLKR 200815Z AUTO 06003KT 10SM FEW048 FEW100 07/01 A3019 RMK AO2
Loading
Personal Weather Stations






























Interactive Weather Map New forecast layout! Learn more

10-Day Weather Forecast

Advertisements
Track Severe Weather on mobile